Airfield :
LOGIN :

Register | Disclaimer

   EN    FR    IT 

 










Legend :    VFR   Marginal VFR   IFR   Intensive IFR   Very Intensive IFR
Visi :
Ceiling :
>= 8 km
>= 3000ft
5 to 8 km
1000 to 3000 ft
1500m to 5 km
500 to 1000 ft
800 to 1500m
200 to 500 ft
< 800m
< 200 ft
Symbols :   Thunderstorms  Fog  Heavy snow  Heavy precipitations  Wind > 20 kt
SIGMETs :     Misc.  Thunderstorms  Icing  Turbulence  Mountain Waves  Volcanic Ashes







- Airport Elevation : 42 ft
- IATA code : KGD


UMKK - Khrabrava - Kaliningrad

CURRENT METAR :
  • 250130Z 23004MPS CAVOK 01/M00 Q1012 R24/60D NOSIG RMK QFE758/1011

EXPIRED METARs :
  • 250100Z 23004MPS CAVOK 01/M00 Q1012 R24/60D NOSIG RMK QFE758/1011
  • 250030Z 24004MPS CAVOK 02/M00 Q1013 R24/CLRD60 NOSIG RMK QFE758/1011
  • 250000Z 23004MPS 9999 FEW020 01/M00 Q1013 R24/60D NOSIG RMK QFE759/1012
  • 242330Z 24005MPS 9999 FEW020 01/M00 Q1014 R24/CLRD60 NOSIG RMK QFE759/1012
  • 242300Z 24004MPS 9999 FEW020 01/00 Q1014 R24/CLRD60 NOSIG RMK QFE759/1013

TAF TAF UMKK
Valid from the 25 at 00:00 until the 26 at 00:00 UTC


242257Z 2500/2524 24003G08MPS 9999 BKN011
TEMPO 2500/2506 22005MPS 3100 BR FEW005
BECMG 2506/2508 27005G10MPS
TEMPO 2506/2521 3100 -SHRA BKN012CB
BECMG 2512/2514 32006G11MPS
TEMPO 2521/2524 36007G12MPS 3100 -SHRASN BKN010CB



MET'MAP, your aeronautical weather chart ! - Copyright ORBIFLY December 2007 - Disclaimer

ORBIFLY MET'MAP TEAM :

Programming & Development : Alexandra Zaïnal
Concept & Development : Baudouin d'Aumeries
Co-Development & Prog : Marc-Olivier Méhu
Technical & hardware support : Manuel Goepfert

Contact : metmap@orbifly.com




SOURCES & CREDITS :

   NOAA